createdAt,value
2023-01-12T00:02:21.783Z,44.08
2023-01-12T00:04:50.488Z,44.20
2023-01-12T00:07:20.382Z,44.26
2023-01-12T00:09:49.165Z,44.14
2023-01-12T00:12:19.084Z,44.14
2023-01-12T00:14:47.667Z,44.14
2023-01-12T00:17:19.489Z,44.07
2023-01-12T00:19:48.046Z,44.09
2023-01-12T00:22:18.583Z,44.21
2023-01-12T00:24:49.927Z,43.97
2023-01-12T00:27:21.767Z,44.14
2023-01-12T00:29:50.489Z,43.93
2023-01-12T00:32:20.944Z,44.08
2023-01-12T00:34:49.517Z,44.04
2023-01-12T00:37:19.511Z,43.96
2023-01-12T00:40:01.332Z,43.96
2023-01-12T00:42:49.819Z,43.96
2023-01-12T00:45:24.708Z,44.13
2023-01-12T00:47:54.578Z,43.90
2023-01-12T00:50:23.699Z,44.05
2023-01-12T00:52:52.294Z,44.02
2023-01-12T00:55:21.075Z,43.99
2023-01-12T00:57:51.036Z,43.83
2023-01-12T01:00:20.386Z,43.97
2023-01-12T01:02:49.016Z,43.98
2023-01-12T01:05:18.704Z,44.02
2023-01-12T01:07:47.529Z,43.98
2023-01-12T01:10:16.441Z,43.92
2023-01-12T01:12:45.562Z,43.95
2023-01-12T01:15:15.483Z,43.82
2023-01-12T01:17:45.111Z,43.94
2023-01-12T01:20:14.032Z,43.92
2023-01-12T01:22:42.691Z,43.83
2023-01-12T01:25:11.588Z,43.78
2023-01-12T01:27:40.332Z,43.94
2023-01-12T01:30:11.254Z,43.93
2023-01-12T01:32:41.285Z,43.75
2023-01-12T01:35:11.116Z,43.87
2023-01-12T01:37:39.670Z,43.67
2023-01-12T01:40:10.298Z,43.63
2023-01-12T01:42:38.826Z,43.83
2023-01-12T01:45:10.970Z,43.79
2023-01-12T01:47:43.106Z,43.65
2023-01-12T01:50:18.270Z,43.65
2023-01-12T01:52:49.326Z,43.70
2023-01-12T01:55:20.430Z,43.71
2023-01-12T01:57:51.928Z,43.62
2023-01-12T02:00:20.793Z,43.58
2023-01-12T02:02:50.804Z,43.66
2023-01-12T02:05:21.228Z,43.66
2023-01-12T02:07:50.010Z,43.61
2023-01-12T02:10:19.797Z,43.55
2023-01-12T02:13:05.937Z,43.58
2023-01-12T02:15:56.584Z,43.67
2023-01-12T02:18:29.376Z,43.60
2023-01-12T02:21:10.159Z,43.61
2023-01-12T02:23:58.513Z,43.72
2023-01-12T02:27:04.784Z,43.56
2023-01-12T02:30:30.378Z,43.60
2023-01-12T02:33:13.635Z,43.61
2023-01-12T02:35:45.967Z,43.71
2023-01-12T02:38:18.655Z,43.56
2023-01-12T02:40:53.131Z,43.62
2023-01-12T02:43:24.552Z,43.58
2023-01-12T02:45:55.879Z,43.50
2023-01-12T02:48:28.680Z,43.55
2023-01-12T02:51:02.470Z,43.38
2023-01-12T02:53:35.289Z,43.50
2023-01-12T02:56:05.842Z,43.46
2023-01-12T02:58:36.940Z,43.56
2023-01-12T03:01:06.071Z,43.49
2023-01-12T03:03:36.272Z,43.42
2023-01-12T03:06:05.298Z,43.46
2023-01-12T03:08:34.062Z,43.48
2023-01-12T03:11:08.815Z,43.47
2023-01-12T03:13:38.431Z,43.38
2023-01-12T03:16:07.538Z,43.40
2023-01-12T03:18:40.503Z,43.46
2023-01-12T03:21:12.850Z,43.39
2023-01-12T03:23:44.354Z,43.37
2023-01-12T03:26:13.054Z,43.47
2023-01-12T03:28:43.548Z,43.36
2023-01-12T03:31:13.563Z,43.29
2023-01-12T03:33:44.473Z,43.29
2023-01-12T03:36:21.717Z,43.28
2023-01-12T03:39:02.461Z,43.36
2023-01-12T03:41:38.987Z,43.22
2023-01-12T03:44:10.740Z,43.31
2023-01-12T03:46:41.607Z,43.32
2023-01-12T03:49:16.407Z,43.31
2023-01-12T03:51:46.668Z,43.35
2023-01-12T03:54:15.467Z,43.17
2023-01-12T03:56:44.859Z,43.34
2023-01-12T03:59:13.553Z,43.22
2023-01-12T04:01:43.557Z,43.27
2023-01-12T04:04:13.606Z,43.22
2023-01-12T04:06:42.241Z,43.20
2023-01-12T04:09:11.010Z,43.28
2023-01-12T04:11:57.057Z,43.26
2023-01-12T04:14:26.054Z,43.19
2023-01-12T04:16:55.168Z,43.04
2023-01-12T04:19:25.265Z,43.22
2023-01-12T04:22:11.181Z,43.21
2023-01-12T04:24:39.759Z,43.15
2023-01-12T04:27:08.631Z,43.14
2023-01-12T04:29:37.300Z,43.24
2023-01-12T04:32:06.357Z,43.16
2023-01-12T04:34:36.628Z,43.12
2023-01-12T04:37:05.221Z,43.08
2023-01-12T04:39:33.748Z,43.06
2023-01-12T04:42:05.839Z,43.13
2023-01-12T04:44:35.060Z,43.17
2023-01-12T04:47:03.906Z,43.02
2023-01-12T04:49:32.471Z,42.97
2023-01-12T04:52:02.570Z,43.14
2023-01-12T04:54:31.163Z,43.05
2023-01-12T04:56:59.816Z,42.96
2023-01-12T04:59:28.345Z,43.11
2023-01-12T05:01:57.248Z,43.15
2023-01-12T05:04:26.334Z,42.99
2023-01-12T05:06:55.092Z,43.07
2023-01-12T05:09:42.822Z,43.15
2023-01-12T05:12:11.552Z,43.15
2023-01-12T05:14:40.235Z,42.84
2023-01-12T05:17:08.971Z,43.01
2023-01-12T05:19:37.507Z,43.00
2023-01-12T05:22:06.275Z,42.99
2023-01-12T05:24:36.441Z,43.04
2023-01-12T05:27:05.343Z,42.94
2023-01-12T05:29:34.056Z,43.02
2023-01-12T05:32:02.626Z,43.07
2023-01-12T05:34:31.335Z,42.96
2023-01-12T05:37:00.007Z,43.04
2023-01-12T05:39:28.505Z,42.95
2023-01-12T05:42:15.705Z,43.03
2023-01-12T05:44:44.404Z,43.06
2023-01-12T05:47:13.107Z,42.93
2023-01-12T05:49:41.749Z,42.97
2023-01-12T05:52:10.472Z,42.97
2023-01-12T05:54:39.071Z,43.02
2023-01-12T05:57:09.249Z,43.12
2023-01-12T05:59:38.007Z,43.13
2023-01-12T06:02:06.609Z,42.96
2023-01-12T06:04:35.452Z,43.20
2023-01-12T06:07:04.124Z,42.97
2023-01-12T06:09:32.910Z,43.01
2023-01-12T06:12:18.984Z,43.37
2023-01-12T06:14:49.107Z,43.15
2023-01-12T06:17:17.719Z,43.34
2023-01-12T06:19:46.440Z,43.35
2023-01-12T06:22:15.360Z,43.33
2023-01-12T06:24:46.217Z,43.49
2023-01-12T06:27:14.963Z,43.48
2023-01-12T06:29:43.598Z,43.75
2023-01-12T06:32:13.808Z,43.64
2023-01-12T06:34:42.528Z,44.00
2023-01-12T06:37:13.271Z,43.85
2023-01-12T06:39:41.840Z,43.85
2023-01-12T06:42:29.614Z,44.02
2023-01-12T06:44:58.489Z,44.03
2023-01-12T06:47:31.252Z,44.50
2023-01-12T06:49:59.907Z,44.76
2023-01-12T06:52:30.290Z,45.10
2023-01-12T06:54:59.390Z,46.15
2023-01-12T06:57:28.158Z,46.24
2023-01-12T06:59:57.216Z,45.64
2023-01-12T07:02:27.312Z,45.10
2023-01-12T07:04:55.906Z,45.23
2023-01-12T07:07:24.473Z,44.90
2023-01-12T07:09:53.159Z,44.95
2023-01-12T07:12:22.005Z,44.60
2023-01-12T07:14:50.658Z,44.73
2023-01-12T07:17:20.548Z,44.72
2023-01-12T07:19:50.658Z,44.67
2023-01-12T07:22:19.178Z,44.32
2023-01-12T07:24:47.789Z,44.45
2023-01-12T07:27:16.515Z,44.27
2023-01-12T07:29:46.794Z,44.26
2023-01-12T07:32:15.390Z,44.22
2023-01-12T07:34:45.018Z,44.15
2023-01-12T07:37:15.039Z,44.07
2023-01-12T07:39:44.078Z,44.08
2023-01-12T07:42:24.830Z,44.15
2023-01-12T07:44:53.540Z,43.97
2023-01-12T07:47:22.222Z,44.02
2023-01-12T07:49:51.026Z,44.23
2023-01-12T07:52:21.026Z,44.25
2023-01-12T07:54:49.767Z,44.22
2023-01-12T07:57:18.610Z,44.26
2023-01-12T07:59:47.501Z,44.64
2023-01-12T08:02:17.083Z,44.80
2023-01-12T08:04:45.978Z,44.71
2023-01-12T08:07:15.197Z,44.59
2023-01-12T08:09:45.382Z,44.36
2023-01-12T08:12:13.916Z,44.32
2023-01-12T08:14:43.157Z,44.13
2023-01-12T08:17:14.553Z,44.13
2023-01-12T08:19:45.340Z,44.20
2023-01-12T08:22:17.507Z,44.03
2023-01-12T08:24:51.419Z,44.13
2023-01-12T08:27:20.236Z,44.11
2023-01-12T08:29:50.071Z,44.05
2023-01-12T08:32:18.895Z,44.06
2023-01-12T08:34:49.411Z,44.09
2023-01-12T08:37:19.884Z,43.92
2023-01-12T08:39:50.415Z,44.05
2023-01-12T08:42:19.644Z,43.75
2023-01-12T08:44:48.581Z,44.02
2023-01-12T08:47:19.300Z,43.86
2023-01-12T08:49:48.091Z,43.95
2023-01-12T08:52:17.037Z,43.89
2023-01-12T08:54:45.963Z,43.97
2023-01-12T08:57:16.476Z,44.01
2023-01-12T08:59:45.127Z,43.91
2023-01-12T09:02:14.172Z,43.90
2023-01-12T09:04:43.002Z,43.97
2023-01-12T09:07:12.796Z,43.86
2023-01-12T09:09:41.478Z,43.87
2023-01-12T09:12:10.397Z,43.87
2023-01-12T09:14:40.536Z,43.82
2023-01-12T09:17:09.305Z,44.16
2023-01-12T09:19:38.139Z,44.03
2023-01-12T09:22:06.833Z,43.40
2023-01-12T09:24:35.513Z,43.33
2023-01-12T09:27:04.482Z,42.74
2023-01-12T09:29:33.173Z,41.77
2023-01-12T09:32:03.517Z,41.99
2023-01-12T09:34:32.352Z,42.44
2023-01-12T09:37:01.859Z,44.01
2023-01-12T09:39:31.133Z,43.77
2023-01-12T09:42:17.025Z,43.48
2023-01-12T09:45:04.728Z,43.79
2023-01-12T09:47:39.788Z,43.67
2023-01-12T09:50:11.274Z,43.58
2023-01-12T09:52:43.138Z,43.64
2023-01-12T09:55:17.891Z,43.53
2023-01-12T09:58:15.819Z,43.48
2023-01-12T10:00:44.326Z,43.43
2023-01-12T10:03:17.889Z,43.40
2023-01-12T10:05:48.912Z,43.36
2023-01-12T10:08:30.159Z,43.26
2023-01-12T10:11:07.635Z,43.22
2023-01-12T10:14:10.583Z,43.44
2023-01-12T10:17:05.850Z,43.34
2023-01-12T10:19:41.015Z,43.56
2023-01-12T10:22:17.653Z,43.52
2023-01-12T10:24:46.483Z,43.81
2023-01-12T10:27:15.707Z,43.81
2023-01-12T10:29:44.353Z,43.72
2023-01-12T10:32:15.718Z,43.72
2023-01-12T10:34:52.895Z,43.72
2023-01-12T10:37:21.458Z,43.76
2023-01-12T10:39:50.366Z,43.65
2023-01-12T10:42:39.208Z,43.72
2023-01-12T10:45:17.713Z,43.63
2023-01-12T10:47:46.868Z,43.66
2023-01-12T10:50:28.660Z,43.54
2023-01-12T10:53:00.596Z,43.47
2023-01-12T10:55:32.995Z,43.39
2023-01-12T10:58:02.056Z,43.38
2023-01-12T11:00:30.970Z,43.50
2023-01-12T11:02:59.699Z,43.72
2023-01-12T11:05:34.272Z,43.46
2023-01-12T11:08:03.205Z,43.52
2023-01-12T11:10:33.246Z,43.75
2023-01-12T11:13:03.585Z,43.70
2023-01-12T11:15:35.686Z,44.12
2023-01-12T11:18:29.774Z,45.08
2023-01-12T11:21:03.143Z,44.81
2023-01-12T11:23:35.325Z,44.84
2023-01-12T11:26:04.336Z,44.88
2023-01-12T11:28:36.072Z,44.86
2023-01-12T11:31:09.050Z,45.00
2023-01-12T11:33:40.905Z,45.08
2023-01-12T11:36:13.121Z,44.86
2023-01-12T11:38:43.460Z,45.01
2023-01-12T11:41:23.922Z,45.21
2023-01-12T11:43:57.828Z,45.15
2023-01-12T11:46:29.874Z,45.07
2023-01-12T11:49:07.619Z,45.22
2023-01-12T11:51:39.272Z,45.21
2023-01-12T11:54:08.347Z,45.15
2023-01-12T11:57:13.586Z,45.23
2023-01-12T11:59:47.237Z,45.32
2023-01-12T12:02:30.363Z,45.32
2023-01-12T12:05:06.932Z,45.27
2023-01-12T12:07:56.245Z,45.03
2023-01-12T12:10:27.642Z,45.07
2023-01-12T12:13:26.900Z,45.42
2023-01-12T12:16:07.308Z,45.28
2023-01-12T12:18:46.875Z,45.27
2023-01-12T12:21:34.760Z,45.28
2023-01-12T12:24:11.462Z,45.27
2023-01-12T12:26:41.683Z,45.26
2023-01-12T12:29:26.457Z,45.34
2023-01-12T12:32:18.729Z,45.23
2023-01-12T12:35:12.789Z,45.33
2023-01-12T12:37:50.559Z,45.32
2023-01-12T12:40:55.432Z,45.43
2023-01-12T12:43:46.732Z,45.28
2023-01-12T12:46:22.750Z,45.40
2023-01-12T12:48:58.551Z,45.33
2023-01-12T12:51:27.873Z,45.33
2023-01-12T12:53:56.692Z,45.28
2023-01-12T12:56:26.813Z,45.37
2023-01-12T12:58:55.969Z,45.19
2023-01-12T13:01:56.044Z,45.28
2023-01-12T13:05:05.059Z,45.40
2023-01-12T13:07:38.044Z,45.26
2023-01-12T13:10:29.984Z,45.41
2023-01-12T13:13:04.034Z,45.27
2023-01-12T13:15:37.168Z,45.57
2023-01-12T13:18:07.110Z,45.42
2023-01-12T13:20:54.497Z,45.33
2023-01-12T13:23:47.574Z,45.16
2023-01-12T13:26:45.789Z,45.59
2023-01-12T13:29:39.988Z,45.38
2023-01-12T13:32:45.412Z,45.39
2023-01-12T13:35:57.811Z,45.34
2023-01-12T13:38:52.604Z,45.58
2023-01-12T13:41:46.873Z,45.51
2023-01-12T13:44:24.415Z,45.28
2023-01-12T13:46:59.633Z,45.21
2023-01-12T13:49:32.620Z,45.39
2023-01-12T13:52:03.388Z,45.30
2023-01-12T13:54:32.257Z,45.31
2023-01-12T13:57:02.373Z,45.25
2023-01-12T13:59:31.151Z,45.25
2023-01-12T14:02:01.312Z,45.11
2023-01-12T14:05:01.831Z,45.17
2023-01-12T14:07:41.835Z,45.31
2023-01-12T14:10:28.565Z,45.31
2023-01-12T14:13:42.593Z,45.34
2023-01-12T14:16:30.599Z,45.31
2023-01-12T14:19:00.674Z,45.22
2023-01-12T14:21:32.888Z,45.39
2023-01-12T14:24:16.477Z,45.14
2023-01-12T14:26:45.099Z,45.13
2023-01-12T14:29:13.886Z,45.20
2023-01-12T14:31:44.663Z,45.23
2023-01-12T14:34:27.402Z,45.12
2023-01-12T14:36:56.320Z,45.23
2023-01-12T14:39:27.053Z,45.14
2023-01-12T14:42:13.744Z,45.17
2023-01-12T14:45:08.097Z,45.24
2023-01-12T14:47:36.954Z,45.00
2023-01-12T14:50:20.744Z,44.89
2023-01-12T14:52:49.667Z,45.18
2023-01-12T14:55:19.291Z,45.23
2023-01-12T14:57:50.110Z,45.28
2023-01-12T15:00:22.791Z,45.21
2023-01-12T15:02:52.189Z,45.16
2023-01-12T15:05:25.529Z,45.08
2023-01-12T15:07:56.881Z,45.13
2023-01-12T15:10:33.613Z,45.13
2023-01-12T15:13:26.407Z,45.31
2023-01-12T15:16:13.216Z,45.28
2023-01-12T15:18:59.887Z,45.51
2023-01-12T15:21:48.419Z,45.33
2023-01-12T15:24:40.477Z,45.59
2023-01-12T15:27:09.535Z,45.66
2023-01-12T15:29:38.498Z,46.18
2023-01-12T15:32:07.438Z,46.10
2023-01-12T15:34:36.262Z,46.75
2023-01-12T15:37:06.360Z,47.48
2023-01-12T15:39:35.116Z,48.12
2023-01-12T15:42:20.221Z,47.99
2023-01-12T15:44:49.920Z,48.40
2023-01-12T15:47:19.748Z,47.83
2023-01-12T15:49:49.441Z,47.75
2023-01-12T15:52:21.231Z,47.60
2023-01-12T15:54:49.982Z,48.05
2023-01-12T15:57:18.705Z,47.04
2023-01-12T15:59:47.218Z,47.14
2023-01-12T16:02:27.747Z,46.74
2023-01-12T16:04:56.273Z,46.63
2023-01-12T16:07:26.589Z,47.08
2023-01-12T16:09:55.794Z,47.15
2023-01-12T16:12:24.751Z,47.41
2023-01-12T16:14:53.559Z,47.13
2023-01-12T16:17:22.411Z,48.23
2023-01-12T16:19:50.953Z,48.79
2023-01-12T16:22:22.044Z,48.46
2023-01-12T16:24:52.553Z,48.26
2023-01-12T16:27:23.335Z,47.91
2023-01-12T16:29:52.154Z,47.85
2023-01-12T16:32:23.955Z,47.17
2023-01-12T16:34:52.601Z,46.82
2023-01-12T16:37:23.214Z,47.19
2023-01-12T16:39:53.284Z,47.64
2023-01-12T16:42:22.174Z,47.35
2023-01-12T16:44:51.184Z,47.22
2023-01-12T16:47:20.961Z,46.83
2023-01-12T16:49:50.160Z,46.87
2023-01-12T16:52:20.239Z,46.67
2023-01-12T16:54:48.835Z,46.58
2023-01-12T16:57:19.430Z,46.58
2023-01-12T16:59:49.717Z,46.52
2023-01-12T17:02:19.953Z,46.39
2023-01-12T17:04:52.337Z,46.31
2023-01-12T17:07:21.284Z,46.35
2023-01-12T17:09:50.002Z,46.36
2023-01-12T17:12:20.293Z,46.21
2023-01-12T17:14:49.138Z,46.19
2023-01-12T17:17:17.778Z,46.17
2023-01-12T17:19:46.548Z,46.22
2023-01-12T17:22:15.269Z,46.00
2023-01-12T17:24:44.081Z,45.93
2023-01-12T17:27:12.818Z,45.96
2023-01-12T17:29:43.038Z,45.92
2023-01-12T17:32:11.621Z,45.89
2023-01-12T17:34:43.255Z,45.88
2023-01-12T17:37:12.013Z,45.87
2023-01-12T17:39:42.626Z,45.65
2023-01-12T17:42:29.952Z,45.74
2023-01-12T17:45:00.067Z,45.79
2023-01-12T17:47:28.756Z,45.67
2023-01-12T17:49:57.342Z,45.56
2023-01-12T17:52:26.265Z,45.71
2023-01-12T17:54:54.955Z,45.49
2023-01-12T17:57:23.563Z,45.63
2023-01-12T17:59:52.358Z,45.41
2023-01-12T18:02:22.383Z,45.46
2023-01-12T18:04:51.098Z,45.50
2023-01-12T18:07:19.909Z,45.39
2023-01-12T18:09:48.546Z,45.30
2023-01-12T18:12:20.799Z,45.43
2023-01-12T18:14:49.819Z,45.24
2023-01-12T18:17:18.421Z,45.22
2023-01-12T18:19:49.049Z,45.29
2023-01-12T18:22:17.688Z,45.26
2023-01-12T18:24:46.324Z,45.15
2023-01-12T18:27:14.846Z,44.91
2023-01-12T18:29:43.866Z,45.10
2023-01-12T18:32:12.488Z,45.02
2023-01-12T18:34:41.566Z,45.00
2023-01-12T18:37:13.692Z,44.88
2023-01-12T18:39:44.334Z,45.01
2023-01-12T18:42:30.564Z,45.00
2023-01-12T18:44:59.690Z,44.80
2023-01-12T18:47:45.784Z,44.63
2023-01-12T18:50:32.007Z,44.84
2023-01-12T18:53:19.802Z,44.83
2023-01-12T18:55:51.033Z,44.83
2023-01-12T18:58:19.604Z,44.89
2023-01-12T19:00:48.262Z,45.15
2023-01-12T19:03:17.443Z,44.90
2023-01-12T19:05:57.353Z,45.28
2023-01-12T19:08:46.484Z,44.03
2023-01-12T19:11:16.361Z,44.94
2023-01-12T19:14:02.466Z,45.24
2023-01-12T19:16:48.851Z,46.12
2023-01-12T19:19:21.945Z,45.58
2023-01-12T19:22:08.009Z,44.96
2023-01-12T19:25:01.068Z,44.81
2023-01-12T19:27:47.125Z,44.79
2023-01-12T19:30:16.057Z,45.00
2023-01-12T19:32:44.955Z,45.35
2023-01-12T19:35:13.503Z,45.84
2023-01-12T19:37:42.664Z,45.58
2023-01-12T19:40:19.713Z,45.45
2023-01-12T19:43:05.951Z,45.79
2023-01-12T19:45:37.604Z,45.69
2023-01-12T19:48:07.523Z,45.72
2023-01-12T19:50:36.505Z,45.52
2023-01-12T19:53:05.792Z,45.39
2023-01-12T19:55:36.391Z,45.42
2023-01-12T19:58:08.816Z,45.14
2023-01-12T20:00:38.051Z,45.32
2023-01-12T20:03:06.814Z,45.36
2023-01-12T20:05:35.674Z,45.23
2023-01-12T20:08:04.357Z,45.20
2023-01-12T20:10:33.303Z,45.26
2023-01-12T20:13:03.265Z,45.27
2023-01-12T20:15:32.064Z,45.23
2023-01-12T20:18:03.074Z,45.39
2023-01-12T20:20:32.032Z,45.13
2023-01-12T20:23:00.689Z,44.98
2023-01-12T20:25:29.437Z,45.13
2023-01-12T20:27:58.405Z,45.18
2023-01-12T20:30:43.746Z,45.35
2023-01-12T20:33:12.532Z,45.05
2023-01-12T20:35:45.888Z,45.16
2023-01-12T20:38:16.482Z,45.17
2023-01-12T20:40:45.506Z,45.32
2023-01-12T20:43:14.126Z,45.27
2023-01-12T20:45:44.410Z,45.21
2023-01-12T20:48:14.917Z,45.37
2023-01-12T20:50:44.727Z,45.18
2023-01-12T20:53:13.496Z,45.25
2023-01-12T20:55:45.562Z,45.34
2023-01-12T20:58:14.375Z,45.36
2023-01-12T21:00:44.407Z,45.34
2023-01-12T21:03:13.333Z,45.27
2023-01-12T21:05:43.060Z,45.15
2023-01-12T21:08:11.865Z,45.12
2023-01-12T21:10:40.849Z,45.29
2023-01-12T21:13:09.673Z,45.06
2023-01-12T21:15:38.369Z,45.18
2023-01-12T21:18:08.316Z,45.12
2023-01-12T21:20:37.130Z,45.07
2023-01-12T21:23:05.719Z,44.99
2023-01-12T21:25:34.582Z,44.95
2023-01-12T21:28:04.037Z,45.01
2023-01-12T21:30:32.959Z,45.07
2023-01-12T21:33:01.568Z,44.95
2023-01-12T21:35:31.676Z,44.92
2023-01-12T21:38:00.406Z,45.00
2023-01-12T21:40:28.947Z,44.98
2023-01-12T21:43:08.987Z,44.97
2023-01-12T21:45:37.753Z,44.87
2023-01-12T21:48:07.059Z,44.93
2023-01-12T21:50:37.302Z,44.86
2023-01-12T21:53:06.721Z,44.87
2023-01-12T21:55:35.551Z,44.88
2023-01-12T21:58:04.281Z,44.96
2023-01-12T22:00:33.060Z,45.01
2023-01-12T22:03:01.732Z,45.04
2023-01-12T22:05:30.377Z,44.91
2023-01-12T22:08:00.412Z,45.00
2023-01-12T22:10:31.503Z,44.81
2023-01-12T22:13:02.590Z,44.94
2023-01-12T22:15:31.687Z,44.76
2023-01-12T22:18:00.765Z,44.87
2023-01-12T22:20:29.477Z,44.88
2023-01-12T22:22:59.643Z,44.82
2023-01-12T22:25:28.236Z,44.99
2023-01-12T22:27:58.084Z,44.85
2023-01-12T22:30:27.945Z,44.92
2023-01-12T22:32:57.123Z,44.90
2023-01-12T22:35:26.269Z,44.73
2023-01-12T22:37:55.885Z,44.75
2023-01-12T22:40:25.895Z,44.72
2023-01-12T22:43:11.989Z,44.68
2023-01-12T22:45:40.841Z,44.78
2023-01-12T22:48:09.631Z,44.66
2023-01-12T22:50:38.485Z,44.58
2023-01-12T22:53:07.290Z,44.70
2023-01-12T22:55:40.344Z,44.58
2023-01-12T22:58:09.392Z,44.62
2023-01-12T23:00:39.916Z,44.73
2023-01-12T23:03:09.901Z,44.62
2023-01-12T23:05:45.893Z,44.63
2023-01-12T23:08:14.865Z,44.56
2023-01-12T23:10:44.903Z,44.54
2023-01-12T23:13:17.251Z,44.48
2023-01-12T23:15:48.153Z,44.43
2023-01-12T23:18:18.413Z,44.56
2023-01-12T23:20:47.316Z,44.59
2023-01-12T23:23:17.859Z,44.50
2023-01-12T23:25:47.992Z,44.39
2023-01-12T23:28:17.049Z,44.44
2023-01-12T23:30:45.790Z,44.44
2023-01-12T23:33:14.465Z,44.46
2023-01-12T23:35:43.699Z,44.50
2023-01-12T23:38:16.473Z,44.41
2023-01-12T23:40:45.345Z,44.30
2023-01-12T23:43:15.678Z,44.42
2023-01-12T23:45:44.275Z,44.37
2023-01-12T23:48:13.531Z,44.41
2023-01-12T23:50:42.364Z,44.25
2023-01-12T23:53:10.946Z,44.34
2023-01-12T23:55:40.509Z,44.44
2023-01-12T23:58:09.396Z,44.37
